sensor_id;sensor_type;location;lat;lon;timestamp;pressure;altitude;pressure_sealevel;temperature;humidity
70323;BME280;57735;56.264;43.898;2023-04-25T00:01:37;100886.94;;;11.26;49.39
70323;BME280;57735;56.264;43.898;2023-04-25T00:04:11;100880.22;;;11.22;49.62
70323;BME280;57735;56.264;43.898;2023-04-25T00:06:42;100884.16;;;11.17;49.54
70323;BME280;57735;56.264;43.898;2023-04-25T00:09:12;100888.09;;;11.13;49.60
70323;BME280;57735;56.264;43.898;2023-04-25T00:11:43;100892.88;;;11.10;49.84
70323;BME280;57735;56.264;43.898;2023-04-25T00:14:19;100886.19;;;11.06;50.10
70323;BME280;57735;56.264;43.898;2023-04-25T00:16:50;100890.81;;;11.04;50.46
70323;BME280;57735;56.264;43.898;2023-04-25T00:19:22;100892.78;;;11.02;50.27
70323;BME280;57735;56.264;43.898;2023-04-25T00:21:53;100886.88;;;10.98;50.55
70323;BME280;57735;56.264;43.898;2023-04-25T00:24:23;100884.63;;;10.94;51.02
70323;BME280;57735;56.264;43.898;2023-04-25T00:26:54;100890.25;;;10.91;51.04
70323;BME280;57735;56.264;43.898;2023-04-25T00:29:25;100891.53;;;10.87;51.06
70323;BME280;57735;56.264;43.898;2023-04-25T00:31:59;100895.06;;;10.87;51.39
70323;BME280;57735;56.264;43.898;2023-04-25T00:34:29;100889.72;;;10.87;51.60
70323;BME280;57735;56.264;43.898;2023-04-25T00:37:00;100889.03;;;10.85;51.90
70323;BME280;57735;56.264;43.898;2023-04-25T00:39:36;100895.19;;;10.86;51.82
70323;BME280;57735;56.264;43.898;2023-04-25T00:42:07;100896.88;;;10.87;51.51
70323;BME280;57735;56.264;43.898;2023-04-25T00:44:39;100891.69;;;10.85;51.55
70323;BME280;57735;56.264;43.898;2023-04-25T00:47:11;100893.66;;;10.83;51.66
70323;BME280;57735;56.264;43.898;2023-04-25T00:49:44;100880.72;;;10.78;52.16
70323;BME280;57735;56.264;43.898;2023-04-25T00:52:15;100885.22;;;10.78;52.00
70323;BME280;57735;56.264;43.898;2023-04-25T00:54:46;100891.53;;;10.77;51.93
70323;BME280;57735;56.264;43.898;2023-04-25T00:57:20;100898.00;;;10.74;51.92
70323;BME280;57735;56.264;43.898;2023-04-25T00:59:51;100897.31;;;10.72;52.13
70323;BME280;57735;56.264;43.898;2023-04-25T01:02:25;100883.28;;;10.70;52.49
70323;BME280;57735;56.264;43.898;2023-04-25T01:04:57;100881.03;;;10.66;52.23
70323;BME280;57735;56.264;43.898;2023-04-25T01:07:28;100882.16;;;10.63;52.22
70323;BME280;57735;56.264;43.898;2023-04-25T01:09:59;100880.47;;;10.62;52.34
70323;BME280;57735;56.264;43.898;2023-04-25T01:12:30;100878.22;;;10.58;52.53
70323;BME280;57735;56.264;43.898;2023-04-25T01:15:01;100874.88;;;10.56;52.63
70323;BME280;57735;56.264;43.898;2023-04-25T01:17:34;100884.97;;;10.52;53.07
70323;BME280;57735;56.264;43.898;2023-04-25T01:20:05;100876.13;;;10.52;52.99
70323;BME280;57735;56.264;43.898;2023-04-25T01:22:37;100877.97;;;10.51;53.45
70323;BME280;57735;56.264;43.898;2023-04-25T01:25:08;100872.78;;;10.49;53.33
70323;BME280;57735;56.264;43.898;2023-04-25T01:27:40;100881.03;;;10.46;53.48
70323;BME280;57735;56.264;43.898;2023-04-25T01:30:11;100880.34;;;10.44;53.63
70323;BME280;57735;56.264;43.898;2023-04-25T01:32:44;100882.59;;;10.49;53.39
70323;BME280;57735;56.264;43.898;2023-04-25T01:35:15;100893.38;;;10.57;53.55
70323;BME280;57735;56.264;43.898;2023-04-25T01:37:49;100888.47;;;10.62;53.50
70323;BME280;57735;56.264;43.898;2023-04-25T01:40:21;100900.41;;;10.68;53.39
70323;BME280;57735;56.264;43.898;2023-04-25T01:42:53;100894.66;;;10.72;53.20
70323;BME280;57735;56.264;43.898;2023-04-25T01:45:24;100896.31;;;10.73;53.40
70323;BME280;57735;56.264;43.898;2023-04-25T01:47:54;100899.69;;;10.75;53.17
70323;BME280;57735;56.264;43.898;2023-04-25T01:50:29;100896.03;;;10.76;53.48
70323;BME280;57735;56.264;43.898;2023-04-25T01:53:00;100895.06;;;10.77;53.21
70323;BME280;57735;56.264;43.898;2023-04-25T01:55:32;100900.81;;;10.82;53.51
70323;BME280;57735;56.264;43.898;2023-04-25T01:58:05;100896.31;;;10.83;53.49
70323;BME280;57735;56.264;43.898;2023-04-25T02:00:39;100903.75;;;10.89;53.46
70323;BME280;57735;56.264;43.898;2023-04-25T02:03:11;100897.13;;;10.93;52.92
70323;BME280;57735;56.264;43.898;2023-04-25T02:05:41;100900.34;;;10.97;53.15
70323;BME280;57735;56.264;43.898;2023-04-25T02:08:13;100896.72;;;10.98;52.88
70323;BME280;57735;56.264;43.898;2023-04-25T02:10:44;100898.25;;;11.00;53.01
70323;BME280;57735;56.264;43.898;2023-04-25T02:13:14;100895.72;;;10.99;52.96
70323;BME280;57735;56.264;43.898;2023-04-25T02:15:45;100892.22;;;10.98;53.23
70323;BME280;57735;56.264;43.898;2023-04-25T02:18:36;100894.19;;;10.96;53.34
70323;BME280;57735;56.264;43.898;2023-04-25T02:21:07;100907.38;;;10.98;52.84
70323;BME280;57735;56.264;43.898;2023-04-25T02:23:38;100911.59;;;11.00;53.08
70323;BME280;57735;56.264;43.898;2023-04-25T02:26:09;100906.81;;;11.04;53.10
70323;BME280;57735;56.264;43.898;2023-04-25T02:28:41;100909.16;;;11.07;52.91
70323;BME280;57735;56.264;43.898;2023-04-25T02:31:12;100915.34;;;11.07;52.89
70323;BME280;57735;56.264;43.898;2023-04-25T02:33:46;100907.19;;;11.09;53.00
70323;BME280;57735;56.264;43.898;2023-04-25T02:36:17;100909.59;;;11.12;52.86
70323;BME280;57735;56.264;43.898;2023-04-25T02:38:56;100908.59;;;11.13;52.90
70323;BME280;57735;56.264;43.898;2023-04-25T02:41:27;100913.81;;;11.14;52.87
70323;BME280;57735;56.264;43.898;2023-04-25T02:43:58;100905.50;;;11.17;52.98
70323;BME280;57735;56.264;43.898;2023-04-25T02:46:29;100913.09;;;11.22;52.74
70323;BME280;57735;56.264;43.898;2023-04-25T02:48:59;100911.78;;;11.26;52.64
70323;BME280;57735;56.264;43.898;2023-04-25T02:51:30;100915.03;;;11.30;52.55
70323;BME280;57735;56.264;43.898;2023-04-25T02:54:01;100906.72;;;11.33;52.47
70323;BME280;57735;56.264;43.898;2023-04-25T02:56:34;100906.59;;;11.34;52.36
70323;BME280;57735;56.264;43.898;2023-04-25T02:59:07;100904.63;;;11.36;52.36
70323;BME280;57735;56.264;43.898;2023-04-25T03:01:38;100914.31;;;11.37;52.31
70323;BME280;57735;56.264;43.898;2023-04-25T03:04:09;100915.00;;;11.39;52.35
70323;BME280;57735;56.264;43.898;2023-04-25T03:06:39;100915.69;;;11.41;52.50
70323;BME280;57735;56.264;43.898;2023-04-25T03:09:10;100907.38;;;11.44;52.33
70323;BME280;57735;56.264;43.898;2023-04-25T03:11:41;100908.06;;;11.46;52.29
70323;BME280;57735;56.264;43.898;2023-04-25T03:14:12;100913.13;;;11.49;52.46
70323;BME280;57735;56.264;43.898;2023-04-25T03:16:43;100909.19;;;11.53;52.39
70323;BME280;57735;56.264;43.898;2023-04-25T03:19:14;100916.22;;;11.54;52.63
70323;BME280;57735;56.264;43.898;2023-04-25T03:21:47;100917.91;;;11.56;52.29
70323;BME280;57735;56.264;43.898;2023-04-25T03:24:18;100915.91;;;11.58;52.22
70323;BME280;57735;56.264;43.898;2023-04-25T03:26:49;100917.44;;;11.60;52.34
70323;BME280;57735;56.264;43.898;2023-04-25T03:29:19;100921.34;;;11.66;51.94
70323;BME280;57735;56.264;43.898;2023-04-25T03:31:54;100920.09;;;11.70;51.96
70323;BME280;57735;56.264;43.898;2023-04-25T03:34:28;100911.09;;;11.71;52.09
70323;BME280;57735;56.264;43.898;2023-04-25T03:37:01;100911.09;;;11.71;52.17
70323;BME280;57735;56.264;43.898;2023-04-25T03:39:32;100904.75;;;11.72;52.02
70323;BME280;57735;56.264;43.898;2023-04-25T03:42:03;100908.81;;;11.76;51.88
70323;BME280;57735;56.264;43.898;2023-04-25T03:44:33;100902.06;;;11.81;51.90
70323;BME280;57735;56.264;43.898;2023-04-25T03:47:04;100898.38;;;11.82;52.04
70323;BME280;57735;56.264;43.898;2023-04-25T03:49:35;100901.31;;;11.89;51.78
70323;BME280;57735;56.264;43.898;2023-04-25T03:52:08;100899.72;;;11.96;51.64
70323;BME280;57735;56.264;43.898;2023-04-25T03:54:39;100897.16;;;12.04;51.52
70323;BME280;57735;56.264;43.898;2023-04-25T03:57:10;100905.25;;;12.12;51.26
70323;BME280;57735;56.264;43.898;2023-04-25T03:59:40;100896.34;;;12.21;51.18
70323;BME280;57735;56.264;43.898;2023-04-25T04:02:11;100900.06;;;12.29;51.05
70323;BME280;57735;56.264;43.898;2023-04-25T04:04:42;100905.50;;;12.37;51.00
70323;BME280;57735;56.264;43.898;2023-04-25T04:07:14;100907.25;;;12.46;50.70
70323;BME280;57735;56.264;43.898;2023-04-25T04:09:45;100911.00;;;12.53;50.47
70323;BME280;57735;56.264;43.898;2023-04-25T04:12:16;100898.84;;;12.58;50.25
70323;BME280;57735;56.264;43.898;2023-04-25T04:14:46;100900.59;;;12.68;49.95
70323;BME280;57735;56.264;43.898;2023-04-25T04:17:17;100905.84;;;12.77;50.10
70323;BME280;57735;56.264;43.898;2023-04-25T04:19:50;100898.75;;;12.86;49.98
70323;BME280;57735;56.264;43.898;2023-04-25T04:22:22;100902.31;;;12.94;49.62
70323;BME280;57735;56.264;43.898;2023-04-25T04:24:53;100898.03;;;13.02;49.50
70323;BME280;57735;56.264;43.898;2023-04-25T04:27:24;100899.75;;;13.11;49.37
70323;BME280;57735;56.264;43.898;2023-04-25T04:29:55;100898.84;;;13.20;49.22
70323;BME280;57735;56.264;43.898;2023-04-25T04:32:26;100899.88;;;13.27;48.97
70323;BME280;57735;56.264;43.898;2023-04-25T04:35:00;100900.78;;;13.36;48.91
70323;BME280;57735;56.264;43.898;2023-04-25T04:37:31;100902.50;;;13.45;48.72
70323;BME280;57735;56.264;43.898;2023-04-25T04:40:01;100903.91;;;13.57;48.52
70323;BME280;57735;56.264;43.898;2023-04-25T04:42:35;100899.78;;;13.71;48.10
70323;BME280;57735;56.264;43.898;2023-04-25T04:45:06;100897.31;;;13.85;48.12
70323;BME280;57735;56.264;43.898;2023-04-25T04:47:38;100892.19;;;14.00;47.76
70323;BME280;57735;56.264;43.898;2023-04-25T04:50:10;100897.22;;;14.11;47.39
70323;BME280;57735;56.264;43.898;2023-04-25T04:52:41;100886.38;;;14.21;47.29
70323;BME280;57735;56.264;43.898;2023-04-25T04:55:12;100895.94;;;14.31;47.13
70323;BME280;57735;56.264;43.898;2023-04-25T04:57:42;100894.31;;;14.47;46.54
70323;BME280;57735;56.264;43.898;2023-04-25T05:00:13;100896.47;;;14.59;46.32
70323;BME280;57735;56.264;43.898;2023-04-25T05:02:48;100883.75;;;14.70;46.11
70323;BME280;57735;56.264;43.898;2023-04-25T05:05:18;100891.97;;;14.76;45.96
70323;BME280;57735;56.264;43.898;2023-04-25T05:07:55;100886.44;;;14.86;45.68
70323;BME280;57735;56.264;43.898;2023-04-25T05:10:28;100889.59;;;14.97;45.55
70323;BME280;57735;56.264;43.898;2023-04-25T05:12:59;100884.91;;;15.08;45.12
70323;BME280;57735;56.264;43.898;2023-04-25T05:15:30;100871.78;;;15.21;44.92
70323;BME280;57735;56.264;43.898;2023-04-25T05:18:01;100874.09;;;15.32;44.51
70323;BME280;57735;56.264;43.898;2023-04-25T05:20:32;100885.97;;;15.46;44.12
70323;BME280;57735;56.264;43.898;2023-04-25T05:23:04;100886.13;;;15.60;43.70
70323;BME280;57735;56.264;43.898;2023-04-25T05:25:35;100883.56;;;15.75;43.54
70323;BME280;57735;56.264;43.898;2023-04-25T05:28:06;100873.91;;;15.89;43.55
70323;BME280;57735;56.264;43.898;2023-04-25T05:30:37;100879.53;;;16.02;43.09
70323;BME280;57735;56.264;43.898;2023-04-25T05:33:08;100882.84;;;16.12;42.75
70323;BME280;57735;56.264;43.898;2023-04-25T05:35:39;100883.47;;;16.22;42.91
70323;BME280;57735;56.264;43.898;2023-04-25T05:38:10;100887.28;;;16.28;42.34
70323;BME280;57735;56.264;43.898;2023-04-25T05:40:41;100885.75;;;16.33;42.26
70323;BME280;57735;56.264;43.898;2023-04-25T05:43:12;100890.25;;;16.41;42.08
70323;BME280;57735;56.264;43.898;2023-04-25T05:45:45;100885.63;;;16.50;42.06
70323;BME280;57735;56.264;43.898;2023-04-25T05:48:18;100890.97;;;16.58;41.79
70323;BME280;57735;56.264;43.898;2023-04-25T05:50:48;100884.50;;;16.67;41.81
70323;BME280;57735;56.264;43.898;2023-04-25T05:53:20;100883.06;;;16.79;41.41
70323;BME280;57735;56.264;43.898;2023-04-25T05:55:51;100883.16;;;16.86;41.06
70323;BME280;57735;56.264;43.898;2023-04-25T05:58:21;100880.38;;;16.94;40.96
70323;BME280;57735;56.264;43.898;2023-04-25T06:00:52;100876.44;;;17.04;40.50
70323;BME280;57735;56.264;43.898;2023-04-25T06:03:25;100875.31;;;17.14;40.45
70323;BME280;57735;56.264;43.898;2023-04-25T06:05:56;100869.69;;;17.23;40.16
70323;BME280;57735;56.264;43.898;2023-04-25T06:08:27;100868.38;;;17.34;39.77
70323;BME280;57735;56.264;43.898;2023-04-25T06:10:57;100860.66;;;17.45;39.63
70323;BME280;57735;56.264;43.898;2023-04-25T06:13:28;100856.00;;;17.54;39.30
70323;BME280;57735;56.264;43.898;2023-04-25T06:16:01;100859.91;;;17.66;39.07
70323;BME280;57735;56.264;43.898;2023-04-25T06:18:32;100851.34;;;17.77;38.90
70323;BME280;57735;56.264;43.898;2023-04-25T06:21:05;100849.00;;;17.89;38.47
70323;BME280;57735;56.264;43.898;2023-04-25T06:23:37;100859.03;;;17.95;38.29
70323;BME280;57735;56.264;43.898;2023-04-25T06:26:11;100853.25;;;17.98;37.47
70323;BME280;57735;56.264;43.898;2023-04-25T06:28:41;100855.00;;;18.06;37.41
70323;BME280;57735;56.264;43.898;2023-04-25T06:31:14;100857.38;;;18.16;37.31
70323;BME280;57735;56.264;43.898;2023-04-25T06:33:45;100842.13;;;18.23;36.79
70323;BME280;57735;56.264;43.898;2023-04-25T06:36:16;100851.56;;;18.33;36.74
70323;BME280;57735;56.264;43.898;2023-04-25T06:38:46;100839.41;;;18.44;36.71
70323;BME280;57735;56.264;43.898;2023-04-25T06:41:17;100849.69;;;18.55;36.58
70323;BME280;57735;56.264;43.898;2023-04-25T06:43:52;100846.28;;;18.68;35.90
70323;BME280;57735;56.264;43.898;2023-04-25T06:46:23;100847.63;;;18.78;35.26
70323;BME280;57735;56.264;43.898;2023-04-25T06:48:53;100841.69;;;18.90;35.09
70323;BME280;57735;56.264;43.898;2023-04-25T06:51:24;100849.91;;;19.03;35.25
70323;BME280;57735;56.264;43.898;2023-04-25T06:53:58;100842.56;;;19.25;34.91
70323;BME280;57735;56.264;43.898;2023-04-25T06:56:31;100851.38;;;19.40;34.46
70323;BME280;57735;56.264;43.898;2023-04-25T06:59:02;100852.31;;;19.54;34.23
70323;BME280;57735;56.264;43.898;2023-04-25T07:01:33;100838.84;;;19.60;33.81
70323;BME280;57735;56.264;43.898;2023-04-25T07:04:03;100847.59;;;19.69;34.28
70323;BME280;57735;56.264;43.898;2023-04-25T07:06:37;100837.63;;;19.69;33.72
70323;BME280;57735;56.264;43.898;2023-04-25T07:09:12;100840.06;;;19.64;33.77
70323;BME280;57735;56.264;43.898;2023-04-25T07:11:43;100842.22;;;19.82;33.88
70323;BME280;57735;56.264;43.898;2023-04-25T07:14:14;100856.47;;;20.04;33.46
70323;BME280;57735;56.264;43.898;2023-04-25T07:16:45;100849.00;;;20.19;33.42
70323;BME280;57735;56.264;43.898;2023-04-25T07:19:16;100851.31;;;20.22;33.24
70323;BME280;57735;56.264;43.898;2023-04-25T07:21:47;100855.25;;;20.19;33.24
70323;BME280;57735;56.264;43.898;2023-04-25T07:24:17;100846.31;;;20.19;33.07
70323;BME280;57735;56.264;43.898;2023-04-25T07:26:51;100842.75;;;20.18;32.62
70323;BME280;57735;56.264;43.898;2023-04-25T07:29:27;100844.84;;;20.16;32.91
70323;BME280;57735;56.264;43.898;2023-04-25T07:31:58;100846.94;;;20.21;32.89
70323;BME280;57735;56.264;43.898;2023-04-25T07:34:31;100846.94;;;20.28;32.47
70323;BME280;57735;56.264;43.898;2023-04-25T07:37:02;100842.00;;;20.38;32.62
70323;BME280;57735;56.264;43.898;2023-04-25T07:39:33;100832.00;;;20.45;32.59
70323;BME280;57735;56.264;43.898;2023-04-25T07:42:04;100835.53;;;20.52;32.79
70323;BME280;57735;56.264;43.898;2023-04-25T07:44:36;100833.25;;;20.55;32.45
70323;BME280;57735;56.264;43.898;2023-04-25T07:47:09;100830.56;;;20.55;32.05
70323;BME280;57735;56.264;43.898;2023-04-25T07:49:40;100823.69;;;20.53;32.04
70323;BME280;57735;56.264;43.898;2023-04-25T07:52:11;100823.69;;;20.53;32.03
70323;BME280;57735;56.264;43.898;2023-04-25T07:54:42;100814.94;;;20.58;32.26
70323;BME280;57735;56.264;43.898;2023-04-25T07:57:13;100818.28;;;20.60;31.98
70323;BME280;57735;56.264;43.898;2023-04-25T07:59:44;100814.06;;;20.64;31.75
70323;BME280;57735;56.264;43.898;2023-04-25T08:02:15;100813.25;;;20.63;31.67
70323;BME280;57735;56.264;43.898;2023-04-25T08:04:45;100805.53;;;20.67;31.71
70323;BME280;57735;56.264;43.898;2023-04-25T08:07:16;100808.25;;;20.67;31.80
70323;BME280;57735;56.264;43.898;2023-04-25T08:09:47;100801.78;;;20.68;31.52
70323;BME280;57735;56.264;43.898;2023-04-25T08:12:18;100800.13;;;20.67;31.65
70323;BME280;57735;56.264;43.898;2023-04-25T08:14:51;100795.97;;;20.71;31.72
70323;BME280;57735;56.264;43.898;2023-04-25T08:17:22;100792.00;;;20.73;31.57
70323;BME280;57735;56.264;43.898;2023-04-25T08:19:53;100788.66;;;20.78;31.42
70323;BME280;57735;56.264;43.898;2023-04-25T08:22:23;100793.63;;;20.81;31.38
70323;BME280;57735;56.264;43.898;2023-04-25T08:24:54;100784.28;;;20.77;31.38
70323;BME280;57735;56.264;43.898;2023-04-25T08:27:25;100786.78;;;20.72;31.69
70323;BME280;57735;56.264;43.898;2023-04-25T08:29:56;100782.19;;;20.72;31.09
70323;BME280;57735;56.264;43.898;2023-04-25T08:32:28;100767.78;;;20.85;30.74
70323;BME280;57735;56.264;43.898;2023-04-25T08:34:59;100773.59;;;21.02;31.04
70323;BME280;57735;56.264;43.898;2023-04-25T08:37:29;100774.81;;;21.19;30.40
70323;BME280;57735;56.264;43.898;2023-04-25T08:40:00;100776.44;;;21.40;30.48
70323;BME280;57735;56.264;43.898;2023-04-25T08:42:31;100763.66;;;21.53;29.90
70323;BME280;57735;56.264;43.898;2023-04-25T08:45:04;100764.59;;;21.72;29.93
70323;BME280;57735;56.264;43.898;2023-04-25T08:47:37;100774.06;;;21.94;29.87
70323;BME280;57735;56.264;43.898;2023-04-25T08:50:09;100764.81;;;22.09;29.39
70323;BME280;57735;56.264;43.898;2023-04-25T08:52:44;100752.00;;;22.16;28.83
70323;BME280;57735;56.264;43.898;2023-04-25T08:55:16;100744.09;;;22.14;28.77
70323;BME280;57735;56.264;43.898;2023-04-25T08:57:50;100751.34;;;22.20;28.70
70323;BME280;57735;56.264;43.898;2023-04-25T09:00:22;100753.97;;;22.09;29.03
70323;BME280;57735;56.264;43.898;2023-04-25T09:02:53;100756.69;;;22.09;28.98
70323;BME280;57735;56.264;43.898;2023-04-25T09:05:28;100759.59;;;22.07;28.51
70323;BME280;57735;56.264;43.898;2023-04-25T09:07:59;100766.16;;;21.93;28.69
70323;BME280;57735;56.264;43.898;2023-04-25T09:10:31;100759.09;;;21.85;28.99
70323;BME280;57735;56.264;43.898;2023-04-25T09:15:55;100756.97;;;21.49;29.80
70323;BME280;57735;56.264;43.898;2023-04-25T09:18:29;100755.09;;;21.50;29.90
70323;BME280;57735;56.264;43.898;2023-04-25T09:21:08;100747.66;;;21.39;29.62
70323;BME280;57735;56.264;43.898;2023-04-25T09:26:19;100751.63;;;21.30;30.26
70323;BME280;57735;56.264;43.898;2023-04-25T09:29:05;100741.81;;;21.35;30.06
70323;BME280;57735;56.264;43.898;2023-04-25T09:31:37;100738.03;;;21.43;30.61
70323;BME280;57735;56.264;43.898;2023-04-25T09:34:08;100747.16;;;21.55;30.48
70323;BME280;57735;56.264;43.898;2023-04-25T09:36:42;100745.84;;;21.64;30.47
70323;BME280;57735;56.264;43.898;2023-04-25T09:39:13;100738.28;;;21.73;30.71
70323;BME280;57735;56.264;43.898;2023-04-25T09:41:46;100740.78;;;21.74;30.60
70323;BME280;57735;56.264;43.898;2023-04-25T09:44:23;100735.78;;;21.71;30.83
70323;BME280;57735;56.264;43.898;2023-04-25T09:46:54;100740.16;;;21.72;30.70
70323;BME280;57735;56.264;43.898;2023-04-25T09:49:26;100735.97;;;21.76;30.68
70323;BME280;57735;56.264;43.898;2023-04-25T09:51:59;100741.66;;;21.68;31.04
70323;BME280;57735;56.264;43.898;2023-04-25T09:54:32;100734.00;;;21.58;31.19
70323;BME280;57735;56.264;43.898;2023-04-25T09:57:12;100733.44;;;21.43;31.17
70323;BME280;57735;56.264;43.898;2023-04-25T09:59:47;100729.56;;;21.19;31.54
70323;BME280;57735;56.264;43.898;2023-04-25T10:02:29;100738.78;;;20.99;32.09
70323;BME280;57735;56.264;43.898;2023-04-25T10:05:02;100736.16;;;20.72;32.48
70323;BME280;57735;56.264;43.898;2023-04-25T10:07:38;100739.28;;;20.49;32.80
70323;BME280;57735;56.264;43.898;2023-04-25T10:10:12;100732.00;;;20.37;32.39
70323;BME280;57735;56.264;43.898;2023-04-25T10:12:44;100728.84;;;20.33;32.39
70323;BME280;57735;56.264;43.898;2023-04-25T10:15:15;100731.13;;;20.30;32.22
70323;BME280;57735;56.264;43.898;2023-04-25T10:17:47;100733.47;;;20.39;32.44
70323;BME280;57735;56.264;43.898;2023-04-25T10:20:22;100724.09;;;20.55;32.13
70323;BME280;57735;56.264;43.898;2023-04-25T10:22:54;100717.59;;;20.76;31.75
70323;BME280;57735;56.264;43.898;2023-04-25T10:25:26;100720.00;;;21.04;31.80
70323;BME280;57735;56.264;43.898;2023-04-25T10:27:59;100709.69;;;21.32;31.14
70323;BME280;57735;56.264;43.898;2023-04-25T10:30:32;100717.03;;;21.63;30.94
70323;BME280;57735;56.264;43.898;2023-04-25T10:33:16;100712.75;;;21.80;29.85
70323;BME280;57735;56.264;43.898;2023-04-25T10:35:49;100703.50;;;21.94;29.53
70323;BME280;57735;56.264;43.898;2023-04-25T10:38:19;100707.00;;;22.02;29.45
70323;BME280;57735;56.264;43.898;2023-04-25T10:41:06;100699.97;;;22.19;29.49
70323;BME280;57735;56.264;43.898;2023-04-25T10:43:43;100706.56;;;22.29;29.52
70323;BME280;57735;56.264;43.898;2023-04-25T10:46:28;100707.94;;;22.14;29.14
70323;BME280;57735;56.264;43.898;2023-04-25T10:49:02;100703.84;;;22.05;29.33
70323;BME280;57735;56.264;43.898;2023-04-25T10:51:34;100698.03;;;22.01;29.39
70323;BME280;57735;56.264;43.898;2023-04-25T10:54:07;100692.63;;;21.94;29.10
70323;BME280;57735;56.264;43.898;2023-04-25T10:56:43;100693.09;;;21.85;29.17
70323;BME280;57735;56.264;43.898;2023-04-25T10:59:18;100707.19;;;21.75;29.32
70323;BME280;57735;56.264;43.898;2023-04-25T11:01:52;100700.31;;;21.66;29.65
70323;BME280;57735;56.264;43.898;2023-04-25T11:04:33;100689.75;;;21.58;29.36
70323;BME280;57735;56.264;43.898;2023-04-25T11:07:34;100697.88;;;21.58;29.60
70323;BME280;57735;56.264;43.898;2023-04-25T11:10:07;100693.75;;;21.49;29.67
70323;BME280;57735;56.264;43.898;2023-04-25T11:12:38;100702.16;;;21.41;29.70
70323;BME280;57735;56.264;43.898;2023-04-25T11:15:09;100700.09;;;21.36;29.88
70323;BME280;57735;56.264;43.898;2023-04-25T11:17:40;100694.47;;;21.31;29.80
70323;BME280;57735;56.264;43.898;2023-04-25T11:20:16;100686.78;;;21.28;30.06
70323;BME280;57735;56.264;43.898;2023-04-25T11:22:47;100693.91;;;21.22;30.13
70323;BME280;57735;56.264;43.898;2023-04-25T11:25:18;100682.03;;;21.10;30.36
70323;BME280;57735;56.264;43.898;2023-04-25T11:27:53;100699.38;;;21.03;30.46
70323;BME280;57735;56.264;43.898;2023-04-25T11:30:25;100695.44;;;20.92;30.97
70323;BME280;57735;56.264;43.898;2023-04-25T11:32:56;100670.22;;;20.92;31.10
70323;BME280;57735;56.264;43.898;2023-04-25T11:35:27;100687.31;;;20.92;31.26
70323;BME280;57735;56.264;43.898;2023-04-25T11:37:58;100681.22;;;20.97;31.46
70323;BME280;57735;56.264;43.898;2023-04-25T11:40:30;100671.47;;;20.89;32.48
70323;BME280;57735;56.264;43.898;2023-04-25T11:43:03;100686.13;;;20.75;33.35
70323;BME280;57735;56.264;43.898;2023-04-25T11:45:36;100681.78;;;20.61;33.68
70323;BME280;57735;56.264;43.898;2023-04-25T11:48:07;100679.28;;;20.52;33.71
70323;BME280;57735;56.264;43.898;2023-04-25T11:50:39;100683.28;;;20.43;34.21
70323;BME280;57735;56.264;43.898;2023-04-25T11:53:10;100676.16;;;20.29;34.51
70323;BME280;57735;56.264;43.898;2023-04-25T11:55:43;100680.34;;;20.18;34.94
70323;BME280;57735;56.264;43.898;2023-04-25T11:58:18;100682.44;;;20.10;35.15
70323;BME280;57735;56.264;43.898;2023-04-25T12:00:49;100668.25;;;19.95;35.50
70323;BME280;57735;56.264;43.898;2023-04-25T12:03:20;100670.34;;;19.86;35.88
70323;BME280;57735;56.264;43.898;2023-04-25T12:06:02;100675.31;;;19.69;36.33
70323;BME280;57735;56.264;43.898;2023-04-25T12:08:35;100680.28;;;19.59;36.89
70323;BME280;57735;56.264;43.898;2023-04-25T12:11:20;100671.31;;;19.52;36.90
70323;BME280;57735;56.264;43.898;2023-04-25T12:13:52;100666.69;;;19.39;36.98
70323;BME280;57735;56.264;43.898;2023-04-25T12:16:24;100663.97;;;19.26;37.22
70323;BME280;57735;56.264;43.898;2023-04-25T12:18:55;100661.41;;;19.18;37.52
70323;BME280;57735;56.264;43.898;2023-04-25T12:21:28;100658.47;;;19.06;37.74
70323;BME280;57735;56.264;43.898;2023-04-25T12:24:16;100663.41;;;18.96;38.06
70323;BME280;57735;56.264;43.898;2023-04-25T12:26:52;100659.03;;;18.95;37.93
70323;BME280;57735;56.264;43.898;2023-04-25T12:29:25;100662.38;;;18.91;37.68
70323;BME280;57735;56.264;43.898;2023-04-25T12:31:56;100649.66;;;18.85;38.03
70323;BME280;57735;56.264;43.898;2023-04-25T12:34:27;100657.72;;;18.78;38.31
70323;BME280;57735;56.264;43.898;2023-04-25T12:36:58;100648.75;;;18.71;38.55
70323;BME280;57735;56.264;43.898;2023-04-25T12:39:29;100647.03;;;18.63;38.58
70323;BME280;57735;56.264;43.898;2023-04-25T12:42:00;100639.28;;;18.54;38.68
70323;BME280;57735;56.264;43.898;2023-04-25T12:44:31;100645.66;;;18.46;39.02
70323;BME280;57735;56.264;43.898;2023-04-25T12:47:02;100646.28;;;18.41;39.12
70323;BME280;57735;56.264;43.898;2023-04-25T12:49:35;100655.53;;;18.32;39.59
70323;BME280;57735;56.264;43.898;2023-04-25T12:52:06;100649.47;;;18.24;39.76
70323;BME280;57735;56.264;43.898;2023-04-25T12:54:39;100656.63;;;18.10;40.43
70323;BME280;57735;56.264;43.898;2023-04-25T12:57:13;100653.44;;;18.00;41.07
70323;BME280;57735;56.264;43.898;2023-04-25T12:59:43;100657.69;;;17.88;41.67
70323;BME280;57735;56.264;43.898;2023-04-25T13:02:14;100655.31;;;17.78;42.45
70323;BME280;57735;56.264;43.898;2023-04-25T13:04:45;100659.63;;;17.72;43.56
70323;BME280;57735;56.264;43.898;2023-04-25T13:07:16;100666.50;;;17.60;44.73
70323;BME280;57735;56.264;43.898;2023-04-25T13:09:47;100660.50;;;17.37;47.91
70323;BME280;57735;56.264;43.898;2023-04-25T13:12:17;100673.63;;;17.10;49.96